sensor_id;sensor_type;location;lat;lon;timestamp;temperature;humidity
7704;DHT22;3894;49.700;10.770;2022-12-11T00:00:17;-1.30;99.90
7704;DHT22;3894;49.700;10.770;2022-12-11T00:02:43;-1.30;99.90
7704;DHT22;3894;49.700;10.770;2022-12-11T00:05:09;-1.30;99.90
7704;DHT22;3894;49.700;10.770;2022-12-11T00:07:35;-1.30;99.90
7704;DHT22;3894;49.700;10.770;2022-12-11T00:10:00;-1.30;99.90
7704;DHT22;3894;49.700;10.770;2022-12-11T00:12:26;-1.30;99.90
7704;DHT22;3894;49.700;10.770;2022-12-11T00:14:53;-1.30;99.90
7704;DHT22;3894;49.700;10.770;2022-12-11T00:17:19;-1.30;99.90
7704;DHT22;3894;49.700;10.770;2022-12-11T00:19:44;-1.30;99.90
7704;DHT22;3894;49.700;10.770;2022-12-11T00:22:10;-1.30;99.90
7704;DHT22;3894;49.700;10.770;2022-12-11T00:24:36;-1.30;99.90
7704;DHT22;3894;49.700;10.770;2022-12-11T00:27:01;-1.30;99.90
7704;DHT22;3894;49.700;10.770;2022-12-11T00:29:30;-1.30;99.90
7704;DHT22;3894;49.700;10.770;2022-12-11T00:31:56;-1.30;99.90
7704;DHT22;3894;49.700;10.770;2022-12-11T00:34:21;-1.20;99.90
7704;DHT22;3894;49.700;10.770;2022-12-11T00:36:47;-1.20;99.90
7704;DHT22;3894;49.700;10.770;2022-12-11T00:39:13;-1.20;99.90
7704;DHT22;3894;49.700;10.770;2022-12-11T00:41:38;-1.20;99.90
7704;DHT22;3894;49.700;10.770;2022-12-11T00:44:04;-1.20;99.90
7704;DHT22;3894;49.700;10.770;2022-12-11T00:46:30;-1.20;99.90
7704;DHT22;3894;49.700;10.770;2022-12-11T00:48:55;-1.20;99.90
7704;DHT22;3894;49.700;10.770;2022-12-11T00:51:21;-1.20;99.90
7704;DHT22;3894;49.700;10.770;2022-12-11T00:53:47;-1.20;99.90
7704;DHT22;3894;49.700;10.770;2022-12-11T00:56:18;-1.20;99.90
7704;DHT22;3894;49.700;10.770;2022-12-11T00:58:45;-1.20;99.90
7704;DHT22;3894;49.700;10.770;2022-12-11T01:01:14;-1.20;99.90
7704;DHT22;3894;49.700;10.770;2022-12-11T01:03:40;-1.20;99.90
7704;DHT22;3894;49.700;10.770;2022-12-11T01:06:06;-1.20;99.90
7704;DHT22;3894;49.700;10.770;2022-12-11T01:08:32;-1.30;99.90
7704;DHT22;3894;49.700;10.770;2022-12-11T01:11:03;-1.20;99.90
7704;DHT22;3894;49.700;10.770;2022-12-11T01:13:29;-1.30;99.90
7704;DHT22;3894;49.700;10.770;2022-12-11T01:15:57;-1.30;99.90
7704;DHT22;3894;49.700;10.770;2022-12-11T01:18:23;-1.30;99.90
7704;DHT22;3894;49.700;10.770;2022-12-11T01:20:49;-1.30;99.90
7704;DHT22;3894;49.700;10.770;2022-12-11T01:23:14;-1.30;99.90
7704;DHT22;3894;49.700;10.770;2022-12-11T01:25:40;-1.20;99.90
7704;DHT22;3894;49.700;10.770;2022-12-11T01:28:07;-1.20;99.90
7704;DHT22;3894;49.700;10.770;2022-12-11T01:30:34;-1.20;99.90
7704;DHT22;3894;49.700;10.770;2022-12-11T01:33:00;-1.20;99.90
7704;DHT22;3894;49.700;10.770;2022-12-11T01:35:28;-1.20;99.90
7704;DHT22;3894;49.700;10.770;2022-12-11T01:37:54;-1.20;99.90
7704;DHT22;3894;49.700;10.770;2022-12-11T01:40:21;-1.20;99.90
7704;DHT22;3894;49.700;10.770;2022-12-11T01:42:47;-1.10;99.90
7704;DHT22;3894;49.700;10.770;2022-12-11T01:45:29;-1.10;99.90
7704;DHT22;3894;49.700;10.770;2022-12-11T01:48:12;-1.20;99.90
7704;DHT22;3894;49.700;10.770;2022-12-11T01:50:43;-1.10;99.90
7704;DHT22;3894;49.700;10.770;2022-12-11T01:53:12;-1.10;99.90
7704;DHT22;3894;49.700;10.770;2022-12-11T01:55:40;-1.10;99.90
7704;DHT22;3894;49.700;10.770;2022-12-11T01:58:07;-1.10;99.90
7704;DHT22;3894;49.700;10.770;2022-12-11T02:00:33;-1.20;99.90
7704;DHT22;3894;49.700;10.770;2022-12-11T02:02:59;-1.20;99.90
7704;DHT22;3894;49.700;10.770;2022-12-11T02:05:24;-1.20;99.90
7704;DHT22;3894;49.700;10.770;2022-12-11T02:07:56;-1.20;99.90
7704;DHT22;3894;49.700;10.770;2022-12-11T02:13:25;-1.20;99.90
7704;DHT22;3894;49.700;10.770;2022-12-11T02:16:05;-1.20;99.90
7704;DHT22;3894;49.700;10.770;2022-12-11T02:18:40;-1.20;99.90
7704;DHT22;3894;49.700;10.770;2022-12-11T02:21:19;-1.20;99.90
7704;DHT22;3894;49.700;10.770;2022-12-11T02:29:38;-1.20;99.90
7704;DHT22;3894;49.700;10.770;2022-12-11T02:32:13;-1.20;99.90
7704;DHT22;3894;49.700;10.770;2022-12-11T02:35:10;-1.20;99.90
7704;DHT22;3894;49.700;10.770;2022-12-11T02:37:40;-1.30;99.90
7704;DHT22;3894;49.700;10.770;2022-12-11T02:40:08;-1.20;99.90
7704;DHT22;3894;49.700;10.770;2022-12-11T02:42:37;-1.20;99.90
7704;DHT22;3894;49.700;10.770;2022-12-11T02:45:05;-1.30;99.90
7704;DHT22;3894;49.700;10.770;2022-12-11T02:47:32;-1.30;99.90
7704;DHT22;3894;49.700;10.770;2022-12-11T02:50:01;-1.30;99.90
7704;DHT22;3894;49.700;10.770;2022-12-11T02:52:29;-1.30;99.90
7704;DHT22;3894;49.700;10.770;2022-12-11T02:54:57;-1.30;99.90
7704;DHT22;3894;49.700;10.770;2022-12-11T02:57:44;-1.30;99.90
7704;DHT22;3894;49.700;10.770;2022-12-11T03:00:11;-1.40;99.90
7704;DHT22;3894;49.700;10.770;2022-12-11T03:02:37;-1.40;99.90
7704;DHT22;3894;49.700;10.770;2022-12-11T03:05:04;-1.40;99.90
7704;DHT22;3894;49.700;10.770;2022-12-11T03:07:35;-1.40;99.90
7704;DHT22;3894;49.700;10.770;2022-12-11T03:10:03;-1.40;99.90
7704;DHT22;3894;49.700;10.770;2022-12-11T03:12:31;-1.40;99.90
7704;DHT22;3894;49.700;10.770;2022-12-11T03:14:59;-1.40;99.90
7704;DHT22;3894;49.700;10.770;2022-12-11T03:17:48;-1.40;99.90
7704;DHT22;3894;49.700;10.770;2022-12-11T03:26:05;-1.40;99.90
7704;DHT22;3894;49.700;10.770;2022-12-11T03:31:12;-1.40;99.90
7704;DHT22;3894;49.700;10.770;2022-12-11T03:33:41;-1.40;99.90
7704;DHT22;3894;49.700;10.770;2022-12-11T03:36:11;-1.40;99.90
7704;DHT22;3894;49.700;10.770;2022-12-11T03:38:49;-1.40;99.90
7704;DHT22;3894;49.700;10.770;2022-12-11T03:41:17;-1.40;99.90
7704;DHT22;3894;49.700;10.770;2022-12-11T03:43:45;-1.40;99.90
7704;DHT22;3894;49.700;10.770;2022-12-11T03:46:12;-1.40;99.90
7704;DHT22;3894;49.700;10.770;2022-12-11T03:48:42;-1.40;99.90
7704;DHT22;3894;49.700;10.770;2022-12-11T03:51:09;-1.40;99.90
7704;DHT22;3894;49.700;10.770;2022-12-11T03:53:35;-1.40;99.90
7704;DHT22;3894;49.700;10.770;2022-12-11T03:56:04;-1.40;99.90
7704;DHT22;3894;49.700;10.770;2022-12-11T03:58:30;-1.40;99.90
7704;DHT22;3894;49.700;10.770;2022-12-11T04:00:56;-1.40;99.90
7704;DHT22;3894;49.700;10.770;2022-12-11T04:03:22;-1.40;99.90
7704;DHT22;3894;49.700;10.770;2022-12-11T04:05:50;-1.40;99.90
7704;DHT22;3894;49.700;10.770;2022-12-11T04:08:16;-1.30;99.90
7704;DHT22;3894;49.700;10.770;2022-12-11T04:10:42;-1.30;99.90
7704;DHT22;3894;49.700;10.770;2022-12-11T04:13:09;-1.30;99.90
7704;DHT22;3894;49.700;10.770;2022-12-11T04:15:35;-1.30;99.90
7704;DHT22;3894;49.700;10.770;2022-12-11T04:18:02;-1.30;99.90
7704;DHT22;3894;49.700;10.770;2022-12-11T04:20:46;-1.30;99.90
7704;DHT22;3894;49.700;10.770;2022-12-11T04:23:30;-1.30;99.90
7704;DHT22;3894;49.700;10.770;2022-12-11T04:26:19;-1.30;99.90
7704;DHT22;3894;49.700;10.770;2022-12-11T04:28:46;-1.30;99.90
7704;DHT22;3894;49.700;10.770;2022-12-11T04:31:14;-1.40;99.90
7704;DHT22;3894;49.700;10.770;2022-12-11T04:33:40;-1.40;99.90
7704;DHT22;3894;49.700;10.770;2022-12-11T04:36:06;-1.40;99.90
7704;DHT22;3894;49.700;10.770;2022-12-11T04:38:32;-1.40;99.90
7704;DHT22;3894;49.700;10.770;2022-12-11T04:41:06;-1.40;99.90
7704;DHT22;3894;49.700;10.770;2022-12-11T04:43:32;-1.40;99.90
7704;DHT22;3894;49.700;10.770;2022-12-11T04:46:03;-1.40;99.90
7704;DHT22;3894;49.700;10.770;2022-12-11T04:48:28;-1.40;99.90
7704;DHT22;3894;49.700;10.770;2022-12-11T04:50:54;-1.40;99.90
7704;DHT22;3894;49.700;10.770;2022-12-11T04:53:20;-1.40;99.90
7704;DHT22;3894;49.700;10.770;2022-12-11T04:55:45;-1.40;99.90
7704;DHT22;3894;49.700;10.770;2022-12-11T04:58:11;-1.30;99.90
7704;DHT22;3894;49.700;10.770;2022-12-11T05:00:38;-1.30;99.90
7704;DHT22;3894;49.700;10.770;2022-12-11T05:03:04;-1.30;99.90
7704;DHT22;3894;49.700;10.770;2022-12-11T05:05:29;-1.30;99.90
7704;DHT22;3894;49.700;10.770;2022-12-11T05:07:55;-1.30;99.90
7704;DHT22;3894;49.700;10.770;2022-12-11T05:10:21;-1.30;99.90
7704;DHT22;3894;49.700;10.770;2022-12-11T05:12:47;-1.30;99.90
7704;DHT22;3894;49.700;10.770;2022-12-11T05:15:12;-1.30;99.90
7704;DHT22;3894;49.700;10.770;2022-12-11T05:17:38;-1.30;99.90
7704;DHT22;3894;49.700;10.770;2022-12-11T05:20:04;-1.30;99.90
7704;DHT22;3894;49.700;10.770;2022-12-11T05:22:30;-1.30;99.90
7704;DHT22;3894;49.700;10.770;2022-12-11T05:24:56;-1.30;99.90
7704;DHT22;3894;49.700;10.770;2022-12-11T05:27:21;-1.30;99.90
7704;DHT22;3894;49.700;10.770;2022-12-11T05:29:47;-1.30;99.90
7704;DHT22;3894;49.700;10.770;2022-12-11T05:32:13;-1.30;99.90
7704;DHT22;3894;49.700;10.770;2022-12-11T05:34:39;-1.40;99.90
7704;DHT22;3894;49.700;10.770;2022-12-11T05:37:04;-1.40;99.90
7704;DHT22;3894;49.700;10.770;2022-12-11T05:39:30;-1.40;99.90
7704;DHT22;3894;49.700;10.770;2022-12-11T05:41:56;-1.40;99.90
7704;DHT22;3894;49.700;10.770;2022-12-11T05:44:21;-1.40;99.90
7704;DHT22;3894;49.700;10.770;2022-12-11T05:46:47;-1.40;99.90
7704;DHT22;3894;49.700;10.770;2022-12-11T05:49:14;-1.50;99.90
7704;DHT22;3894;49.700;10.770;2022-12-11T05:51:40;-1.50;99.90
7704;DHT22;3894;49.700;10.770;2022-12-11T05:54:06;-1.50;99.90
7704;DHT22;3894;49.700;10.770;2022-12-11T05:56:33;-1.60;99.90
7704;DHT22;3894;49.700;10.770;2022-12-11T05:59:00;-1.60;99.90
7704;DHT22;3894;49.700;10.770;2022-12-11T06:01:34;-1.70;99.90
7704;DHT22;3894;49.700;10.770;2022-12-11T06:04:00;-1.70;99.90
7704;DHT22;3894;49.700;10.770;2022-12-11T06:06:26;-1.70;99.90
7704;DHT22;3894;49.700;10.770;2022-12-11T06:08:54;-1.70;99.90
7704;DHT22;3894;49.700;10.770;2022-12-11T06:11:20;-1.80;99.90
7704;DHT22;3894;49.700;10.770;2022-12-11T06:13:47;-1.80;99.90
7704;DHT22;3894;49.700;10.770;2022-12-11T06:16:12;-1.90;99.90
7704;DHT22;3894;49.700;10.770;2022-12-11T06:18:40;-1.90;99.90
7704;DHT22;3894;49.700;10.770;2022-12-11T06:23:38;-2.00;99.90
7704;DHT22;3894;49.700;10.770;2022-12-11T06:26:04;-2.00;99.90
7704;DHT22;3894;49.700;10.770;2022-12-11T06:28:30;-2.00;99.90
7704;DHT22;3894;49.700;10.770;2022-12-11T06:30:58;-2.10;99.90
7704;DHT22;3894;49.700;10.770;2022-12-11T06:33:24;-2.10;99.90
7704;DHT22;3894;49.700;10.770;2022-12-11T06:35:50;-2.10;99.90
7704;DHT22;3894;49.700;10.770;2022-12-11T06:38:16;-2.10;99.90
7704;DHT22;3894;49.700;10.770;2022-12-11T06:40:42;-2.10;99.90
7704;DHT22;3894;49.700;10.770;2022-12-11T06:43:07;-2.20;99.90
7704;DHT22;3894;49.700;10.770;2022-12-11T06:45:33;-2.20;99.90
7704;DHT22;3894;49.700;10.770;2022-12-11T06:47:59;-2.20;99.90
7704;DHT22;3894;49.700;10.770;2022-12-11T06:50:24;-2.20;99.90
7704;DHT22;3894;49.700;10.770;2022-12-11T06:52:50;-2.20;99.90
7704;DHT22;3894;49.700;10.770;2022-12-11T06:55:16;-2.20;99.90
7704;DHT22;3894;49.700;10.770;2022-12-11T06:57:41;-2.20;99.90
7704;DHT22;3894;49.700;10.770;2022-12-11T07:00:07;-2.20;99.90
7704;DHT22;3894;49.700;10.770;2022-12-11T07:02:33;-2.30;99.90
7704;DHT22;3894;49.700;10.770;2022-12-11T07:04:59;-2.30;99.90
7704;DHT22;3894;49.700;10.770;2022-12-11T07:07:24;-2.30;99.90
7704;DHT22;3894;49.700;10.770;2022-12-11T07:09:50;-2.30;99.90
7704;DHT22;3894;49.700;10.770;2022-12-11T07:12:16;-2.30;99.90
7704;DHT22;3894;49.700;10.770;2022-12-11T07:14:42;-2.30;99.90
7704;DHT22;3894;49.700;10.770;2022-12-11T07:17:07;-2.20;99.90
7704;DHT22;3894;49.700;10.770;2022-12-11T07:19:33;-2.20;99.90
7704;DHT22;3894;49.700;10.770;2022-12-11T07:21:58;-2.30;99.90
7704;DHT22;3894;49.700;10.770;2022-12-11T07:24:24;-2.30;99.90
7704;DHT22;3894;49.700;10.770;2022-12-11T07:26:50;-2.30;99.90
7704;DHT22;3894;49.700;10.770;2022-12-11T07:29:15;-2.30;99.90
7704;DHT22;3894;49.700;10.770;2022-12-11T07:31:41;-2.30;99.90
7704;DHT22;3894;49.700;10.770;2022-12-11T07:34:07;-2.40;99.90
7704;DHT22;3894;49.700;10.770;2022-12-11T07:36:33;-2.40;99.90
7704;DHT22;3894;49.700;10.770;2022-12-11T07:38:59;-2.40;99.90
7704;DHT22;3894;49.700;10.770;2022-12-11T07:41:26;-2.40;99.90
7704;DHT22;3894;49.700;10.770;2022-12-11T07:43:56;-2.40;99.90
7704;DHT22;3894;49.700;10.770;2022-12-11T07:46:25;-2.50;99.90
7704;DHT22;3894;49.700;10.770;2022-12-11T07:48:50;-2.50;99.90
7704;DHT22;3894;49.700;10.770;2022-12-11T07:51:19;-2.50;99.90
7704;DHT22;3894;49.700;10.770;2022-12-11T07:53:47;-2.50;99.90
7704;DHT22;3894;49.700;10.770;2022-12-11T07:56:13;-2.40;99.90
7704;DHT22;3894;49.700;10.770;2022-12-11T07:58:40;-2.40;99.90
7704;DHT22;3894;49.700;10.770;2022-12-11T08:01:14;-2.50;99.90
7704;DHT22;3894;49.700;10.770;2022-12-11T08:03:40;-2.40;99.90
7704;DHT22;3894;49.700;10.770;2022-12-11T08:06:06;-2.40;99.90
7704;DHT22;3894;49.700;10.770;2022-12-11T08:08:32;-2.40;99.90
7704;DHT22;3894;49.700;10.770;2022-12-11T08:11:06;-2.40;99.90
7704;DHT22;3894;49.700;10.770;2022-12-11T08:13:32;-2.40;99.90
7704;DHT22;3894;49.700;10.770;2022-12-11T08:15:58;-2.30;99.90
7704;DHT22;3894;49.700;10.770;2022-12-11T08:18:23;-2.30;99.90
7704;DHT22;3894;49.700;10.770;2022-12-11T08:20:49;-2.30;99.90
7704;DHT22;3894;49.700;10.770;2022-12-11T08:23:15;-2.20;99.90
7704;DHT22;3894;49.700;10.770;2022-12-11T08:25:41;-2.10;99.90
7704;DHT22;3894;49.700;10.770;2022-12-11T08:28:06;-2.10;99.90
7704;DHT22;3894;49.700;10.770;2022-12-11T08:30:32;-2.00;99.90
7704;DHT22;3894;49.700;10.770;2022-12-11T08:32:58;-2.00;99.90
7704;DHT22;3894;49.700;10.770;2022-12-11T08:35:24;-2.00;99.90
7704;DHT22;3894;49.700;10.770;2022-12-11T08:37:50;-1.90;99.90
7704;DHT22;3894;49.700;10.770;2022-12-11T08:40:16;-1.90;99.90
7704;DHT22;3894;49.700;10.770;2022-12-11T08:42:41;-1.90;99.90
7704;DHT22;3894;49.700;10.770;2022-12-11T08:45:07;-1.80;99.90
7704;DHT22;3894;49.700;10.770;2022-12-11T08:47:33;-1.80;99.90
7704;DHT22;3894;49.700;10.770;2022-12-11T08:50:00;-1.80;99.90
7704;DHT22;3894;49.700;10.770;2022-12-11T08:52:26;-1.80;99.90
7704;DHT22;3894;49.700;10.770;2022-12-11T08:54:51;-1.90;99.90
7704;DHT22;3894;49.700;10.770;2022-12-11T08:57:17;-1.90;99.90
7704;DHT22;3894;49.700;10.770;2022-12-11T08:59:42;-1.90;99.90
7704;DHT22;3894;49.700;10.770;2022-12-11T09:02:11;-1.90;99.90
7704;DHT22;3894;49.700;10.770;2022-12-11T09:04:37;-1.90;99.90
7704;DHT22;3894;49.700;10.770;2022-12-11T09:07:03;-1.90;99.90
7704;DHT22;3894;49.700;10.770;2022-12-11T09:09:29;-1.80;99.90
7704;DHT22;3894;49.700;10.770;2022-12-11T09:11:54;-1.80;99.90
7704;DHT22;3894;49.700;10.770;2022-12-11T09:14:21;-1.80;99.90
7704;DHT22;3894;49.700;10.770;2022-12-11T09:16:46;-1.80;99.90
7704;DHT22;3894;49.700;10.770;2022-12-11T09:19:13;-1.80;99.90
7704;DHT22;3894;49.700;10.770;2022-12-11T09:21:40;-1.70;99.90
7704;DHT22;3894;49.700;10.770;2022-12-11T09:24:08;-1.70;99.90
7704;DHT22;3894;49.700;10.770;2022-12-11T09:26:34;-1.60;99.90
7704;DHT22;3894;49.700;10.770;2022-12-11T09:29:03;-1.60;99.90
7704;DHT22;3894;49.700;10.770;2022-12-11T09:31:29;-1.60;99.90
7704;DHT22;3894;49.700;10.770;2022-12-11T09:33:57;-1.60;99.90
7704;DHT22;3894;49.700;10.770;2022-12-11T09:36:24;-1.60;99.90
7704;DHT22;3894;49.700;10.770;2022-12-11T09:38:50;-1.60;99.90
7704;DHT22;3894;49.700;10.770;2022-12-11T09:46:26;-1.60;99.90
7704;DHT22;3894;49.700;10.770;2022-12-11T09:48:52;-1.60;99.90
7704;DHT22;3894;49.700;10.770;2022-12-11T09:54:05;-1.70;99.90
7704;DHT22;3894;49.700;10.770;2022-12-11T09:57:19;-1.70;99.90
7704;DHT22;3894;49.700;10.770;2022-12-11T10:02:32;-1.70;99.90
7704;DHT22;3894;49.700;10.770;2022-12-11T10:08:02;-1.80;99.90
7704;DHT22;3894;49.700;10.770;2022-12-11T10:10:40;-1.80;99.90
7704;DHT22;3894;49.700;10.770;2022-12-11T10:16:08;-1.70;99.90
7704;DHT22;3894;49.700;10.770;2022-12-11T10:18:39;-1.70;99.90
7704;DHT22;3894;49.700;10.770;2022-12-11T10:21:05;-1.70;99.90
7704;DHT22;3894;49.700;10.770;2022-12-11T10:23:44;-1.70;99.90
7704;DHT22;3894;49.700;10.770;2022-12-11T10:26:19;-1.70;99.90
7704;DHT22;3894;49.700;10.770;2022-12-11T10:28:45;-1.80;99.90
7704;DHT22;3894;49.700;10.770;2022-12-11T10:34:14;-1.80;99.90
7704;DHT22;3894;49.700;10.770;2022-12-11T10:36:43;-1.80;99.90
7704;DHT22;3894;49.700;10.770;2022-12-11T10:39:20;-1.80;99.90
7704;DHT22;3894;49.700;10.770;2022-12-11T10:41:48;-1.80;99.90
7704;DHT22;3894;49.700;10.770;2022-12-11T10:46:59;-1.80;99.90
7704;DHT22;3894;49.700;10.770;2022-12-11T10:49:29;-1.70;99.90
7704;DHT22;3894;49.700;10.770;2022-12-11T10:51:56;-1.70;99.90
7704;DHT22;3894;49.700;10.770;2022-12-11T10:54:39;-1.80;99.90
7704;DHT22;3894;49.700;10.770;2022-12-11T10:57:07;-1.80;99.90
7704;DHT22;3894;49.700;10.770;2022-12-11T10:59:44;-1.70;99.90
7704;DHT22;3894;49.700;10.770;2022-12-11T11:02:31;-1.70;99.90
7704;DHT22;3894;49.700;10.770;2022-12-11T11:04:59;-1.80;99.90
7704;DHT22;3894;49.700;10.770;2022-12-11T11:07:30;-1.80;99.90
7704;DHT22;3894;49.700;10.770;2022-12-11T11:10:12;-1.80;99.90
7704;DHT22;3894;49.700;10.770;2022-12-11T11:12:46;-1.80;99.90
7704;DHT22;3894;49.700;10.770;2022-12-11T11:15:25;-1.80;99.90
7704;DHT22;3894;49.700;10.770;2022-12-11T11:17:57;-1.80;99.90
7704;DHT22;3894;49.700;10.770;2022-12-11T11:20:28;-1.80;99.90
7704;DHT22;3894;49.700;10.770;2022-12-11T11:23:01;-1.70;99.90
7704;DHT22;3894;49.700;10.770;2022-12-11T11:28:03;-1.70;99.90
7704;DHT22;3894;49.700;10.770;2022-12-11T11:30:33;-1.70;99.90
7704;DHT22;3894;49.700;10.770;2022-12-11T11:33:03;-1.70;99.90
7704;DHT22;3894;49.700;10.770;2022-12-11T11:35:31;-1.70;99.90
7704;DHT22;3894;49.700;10.770;2022-12-11T11:38:04;-1.70;99.90
7704;DHT22;3894;49.700;10.770;2022-12-11T11:40:45;-1.60;99.90
7704;DHT22;3894;49.700;10.770;2022-12-11T11:43:36;-1.60;99.90
7704;DHT22;3894;49.700;10.770;2022-12-11T11:53:47;-1.60;99.90
7704;DHT22;3894;49.700;10.770;2022-12-11T11:56:24;-1.70;99.90
7704;DHT22;3894;49.700;10.770;2022-12-11T12:01:40;-1.70;99.90
7704;DHT22;3894;49.700;10.770;2022-12-11T12:04:07;-1.70;99.90
7704;DHT22;3894;49.700;10.770;2022-12-11T12:06:49;-1.60;99.90
7704;DHT22;3894;49.700;10.770;2022-12-11T12:12:10;-1.60;99.90
7704;DHT22;3894;49.700;10.770;2022-12-11T12:20:59;-1.50;99.90
7704;DHT22;3894;49.700;10.770;2022-12-11T12:26:37;-1.50;99.90
7704;DHT22;3894;49.700;10.770;2022-12-11T12:29:17;-1.40;99.90
7704;DHT22;3894;49.700;10.770;2022-12-11T12:32:22;-1.30;99.90
7704;DHT22;3894;49.700;10.770;2022-12-11T12:40:22;-1.20;99.90
7704;DHT22;3894;49.700;10.770;2022-12-11T12:43:20;-1.20;99.90
7704;DHT22;3894;49.700;10.770;2022-12-11T12:48:13;-1.10;99.90
7704;DHT22;3894;49.700;10.770;2022-12-11T12:50:45;-1.10;99.90
7704;DHT22;3894;49.700;10.770;2022-12-11T12:53:16;-1.20;99.90
7704;DHT22;3894;49.700;10.770;2022-12-11T12:55:43;-1.20;99.90
7704;DHT22;3894;49.700;10.770;2022-12-11T13:00:52;-1.20;99.90
7704;DHT22;3894;49.700;10.770;2022-12-11T13:03:23;-1.10;99.90
7704;DHT22;3894;49.700;10.770;2022-12-11T13:06:04;-1.10;99.90
7704;DHT22;3894;49.700;10.770;2022-12-11T13:11:33;-1.00;99.90
7704;DHT22;3894;49.700;10.770;2022-12-11T13:14:06;-0.90;99.90
7704;DHT22;3894;49.700;10.770;2022-12-11T13:16:43;-1.00;99.90
7704;DHT22;3894;49.700;10.770;2022-12-11T13:24:32;-1.00;99.90
7704;DHT22;3894;49.700;10.770;2022-12-11T13:27:09;-1.00;99.90
7704;DHT22;3894;49.700;10.770;2022-12-11T13:29:40;-1.00;99.90
7704;DHT22;3894;49.700;10.770;2022-12-11T13:34:39;-1.00;99.90
7704;DHT22;3894;49.700;10.770;2022-12-11T13:37:06;-1.10;99.90
7704;DHT22;3894;49.700;10.770;2022-12-11T13:39:45;-1.10;99.90
7704;DHT22;3894;49.700;10.770;2022-12-11T13:42:37;-1.10;99.90
7704;DHT22;3894;49.700;10.770;2022-12-11T13:45:06;-1.20;99.90
7704;DHT22;3894;49.700;10.770;2022-12-11T13:47:42;-1.10;99.90
7704;DHT22;3894;49.700;10.770;2022-12-11T13:50:30;-1.10;99.90
7704;DHT22;3894;49.700;10.770;2022-12-11T13:52:58;-1.10;99.90
7704;DHT22;3894;49.700;10.770;2022-12-11T13:55:27;-1.00;99.90
7704;DHT22;3894;49.700;10.770;2022-12-11T13:57:52;-0.90;99.90
7704;DHT22;3894;49.700;10.770;2022-12-11T14:00:24;-0.80;99.90
7704;DHT22;3894;49.700;10.770;2022-12-11T14:02:51;-0.80;99.90
7704;DHT22;3894;49.700;10.770;2022-12-11T14:05:18;-0.80;99.90
7704;DHT22;3894;49.700;10.770;2022-12-11T14:07:50;-0.80;99.90
7704;DHT22;3894;49.700;10.770;2022-12-11T14:10:19;-0.80;99.90
7704;DHT22;3894;49.700;10.770;2022-12-11T14:12:54;-0.80;99.90
7704;DHT22;3894;49.700;10.770;2022-12-11T14:15:21;-0.80;99.90
7704;DHT22;3894;49.700;10.770;2022-12-11T14:17:47;-0.80;99.90
7704;DHT22;3894;49.700;10.770;2022-12-11T14:20:18;-0.80;99.90
7704;DHT22;3894;49.700;10.770;2022-12-11T14:22:44;-0.80;99.90
7704;DHT22;3894;49.700;10.770;2022-12-11T14:25:23;-0.80;99.90
7704;DHT22;3894;49.700;10.770;2022-12-11T14:27:52;-0.80;99.90
7704;DHT22;3894;49.700;10.770;2022-12-11T14:30:24;-0.80;99.90
7704;DHT22;3894;49.700;10.770;2022-12-11T14:32:52;-0.90;99.90
7704;DHT22;3894;49.700;10.770;2022-12-11T14:35:35;-0.90;99.90
7704;DHT22;3894;49.700;10.770;2022-12-11T14:38:11;-0.90;99.90
7704;DHT22;3894;49.700;10.770;2022-12-11T14:40:41;-0.90;99.90
7704;DHT22;3894;49.700;10.770;2022-12-11T14:43:13;-1.00;99.90
7704;DHT22;3894;49.700;10.770;2022-12-11T14:45:42;-1.00;99.90
7704;DHT22;3894;49.700;10.770;2022-12-11T14:48:15;-1.10;99.90
7704;DHT22;3894;49.700;10.770;2022-12-11T14:50:51;-1.20;99.90
7704;DHT22;3894;49.700;10.770;2022-12-11T14:53:22;-1.20;99.90
7704;DHT22;3894;49.700;10.770;2022-12-11T14:55:50;-1.20;99.90
7704;DHT22;3894;49.700;10.770;2022-12-11T14:58:21;-1.20;99.90
7704;DHT22;3894;49.700;10.770;2022-12-11T15:01:05;-1.30;99.90
7704;DHT22;3894;49.700;10.770;2022-12-11T15:03:36;-1.30;99.90
7704;DHT22;3894;49.700;10.770;2022-12-11T15:06:20;-1.40;99.90
7704;DHT22;3894;49.700;10.770;2022-12-11T15:08:47;-1.40;99.90
7704;DHT22;3894;49.700;10.770;2022-12-11T15:11:14;-1.40;99.90
7704;DHT22;3894;49.700;10.770;2022-12-11T15:13:56;-1.50;99.90
7704;DHT22;3894;49.700;10.770;2022-12-11T15:16:25;-1.50;99.90
7704;DHT22;3894;49.700;10.770;2022-12-11T15:18:53;-1.50;99.90
7704;DHT22;3894;49.700;10.770;2022-12-11T15:21:27;-1.50;99.90
7704;DHT22;3894;49.700;10.770;2022-12-11T15:23:56;-1.50;99.90
7704;DHT22;3894;49.700;10.770;2022-12-11T15:26:40;-1.50;99.90
7704;DHT22;3894;49.700;10.770;2022-12-11T15:29:34;-1.60;99.90
7704;DHT22;3894;49.700;10.770;2022-12-11T15:34:50;-1.60;99.90
7704;DHT22;3894;49.700;10.770;2022-12-11T15:37:33;-1.70;99.90
7704;DHT22;3894;49.700;10.770;2022-12-11T15:40:03;-1.70;99.90
7704;DHT22;3894;49.700;10.770;2022-12-11T15:42:36;-1.70;99.90
7704;DHT22;3894;49.700;10.770;2022-12-11T15:45:10;-1.70;99.90
7704;DHT22;3894;49.700;10.770;2022-12-11T15:47:39;-1.70;99.90
7704;DHT22;3894;49.700;10.770;2022-12-11T15:50:27;-1.70;99.90
7704;DHT22;3894;49.700;10.770;2022-12-11T15:52:54;-1.70;99.90
7704;DHT22;3894;49.700;10.770;2022-12-11T15:55:21;-1.70;99.90
7704;DHT22;3894;49.700;10.770;2022-12-11T15:57:55;-1.70;99.90
7704;DHT22;3894;49.700;10.770;2022-12-11T16:00:22;-1.70;99.90
7704;DHT22;3894;49.700;10.770;2022-12-11T16:02:49;-1.70;99.90
7704;DHT22;3894;49.700;10.770;2022-12-11T16:05:15;-1.70;99.90
7704;DHT22;3894;49.700;10.770;2022-12-11T16:07:41;-1.70;99.90
7704;DHT22;3894;49.700;10.770;2022-12-11T16:10:13;-1.70;99.90
7704;DHT22;3894;49.700;10.770;2022-12-11T16:12:38;-1.70;99.90
7704;DHT22;3894;49.700;10.770;2022-12-11T16:15:04;-1.70;99.90
7704;DHT22;3894;49.700;10.770;2022-12-11T16:17:30;-1.70;99.90
7704;DHT22;3894;49.700;10.770;2022-12-11T16:19:56;-1.70;99.90
7704;DHT22;3894;49.700;10.770;2022-12-11T16:22:21;-1.70;99.90
7704;DHT22;3894;49.700;10.770;2022-12-11T16:24:47;-1.70;99.90
7704;DHT22;3894;49.700;10.770;2022-12-11T16:27:16;-1.70;99.90
7704;DHT22;3894;49.700;10.770;2022-12-11T16:29:42;-1.70;99.90
7704;DHT22;3894;49.700;10.770;2022-12-11T16:32:08;-1.80;99.90
7704;DHT22;3894;49.700;10.770;2022-12-11T16:34:35;-1.70;99.90
7704;DHT22;3894;49.700;10.770;2022-12-11T16:37:01;-1.80;99.90
7704;DHT22;3894;49.700;10.770;2022-12-11T16:39:26;-1.70;99.90
7704;DHT22;3894;49.700;10.770;2022-12-11T16:41:52;-1.70;99.90
7704;DHT22;3894;49.700;10.770;2022-12-11T16:44:19;-1.70;99.90
7704;DHT22;3894;49.700;10.770;2022-12-11T16:46:45;-1.70;99.90
7704;DHT22;3894;49.700;10.770;2022-12-11T16:49:10;-1.70;99.90
7704;DHT22;3894;49.700;10.770;2022-12-11T16:51:36;-1.80;99.90
7704;DHT22;3894;49.700;10.770;2022-12-11T16:54:02;-1.80;99.90
7704;DHT22;3894;49.700;10.770;2022-12-11T16:56:27;-1.80;99.90
7704;DHT22;3894;49.700;10.770;2022-12-11T16:58:53;-1.80;99.90
7704;DHT22;3894;49.700;10.770;2022-12-11T17:01:19;-1.80;99.90
7704;DHT22;3894;49.700;10.770;2022-12-11T17:03:45;-1.80;99.90
7704;DHT22;3894;49.700;10.770;2022-12-11T17:06:14;-1.80;99.90
7704;DHT22;3894;49.700;10.770;2022-12-11T17:08:40;-1.80;99.90
7704;DHT22;3894;49.700;10.770;2022-12-11T17:11:09;-1.80;99.90
7704;DHT22;3894;49.700;10.770;2022-12-11T17:13:35;-1.80;99.90
7704;DHT22;3894;49.700;10.770;2022-12-11T17:16:10;-1.80;99.90
7704;DHT22;3894;49.700;10.770;2022-12-11T17:18:35;-1.80;99.90
7704;DHT22;3894;49.700;10.770;2022-12-11T17:21:11;-1.80;99.90
7704;DHT22;3894;49.700;10.770;2022-12-11T17:23:37;-1.80;99.90
7704;DHT22;3894;49.700;10.770;2022-12-11T17:28:30;-1.80;99.90
7704;DHT22;3894;49.700;10.770;2022-12-11T17:30:56;-1.80;99.90